Time;durP1;ratioP1;P1;durP2;ratioP2;P2;SDS_P1;SDS_P2;PMS_P1;PMS_P2;Temp;Humidity;BMP_temperature;BMP_pressure;BME280_temperature;BME280_humidity;BME280_pressure;Samples;Min_cycle;Max_cycle;Signal;HPM_P1;HPM_P2
2022/08/18 00:02:24;;;;;;;18.17;16.67;;;22.70;99.90;;;;;;5015971;28;20763;-76
2022/08/18 00:04:51;;;;;;;16.40;15.10;;;22.70;99.90;;;;;;5033808;28;20308;-77
2022/08/18 00:07:29;;;;;;;16.90;15.50;;;22.70;99.90;;;;;;5016358;28;20561;-76
2022/08/18 00:09:57;;;;;;;16.27;14.90;;;22.60;99.90;;;;;;5034858;28;20572;-76
2022/08/18 00:12:34;;;;;;;17.63;16.23;;;22.60;99.90;;;;;;5017416;28;20620;-76
2022/08/18 00:15:04;;;;;;;21.23;15.30;;;22.60;99.90;;;;;;5034098;28;20615;-76
2022/08/18 00:17:31;;;;;;;23.87;16.90;;;22.60;99.90;;;;;;5034113;28;20906;-75
2022/08/18 00:19:57;;;;;;;18.83;17.13;;;22.60;99.90;;;;;;5034641;28;20561;-75
2022/08/18 00:22:24;;;;;;;19.20;17.30;;;22.60;99.90;;;;;;5017112;28;20600;-77
2022/08/18 00:24:54;;;;;;;19.13;16.77;;;22.50;99.90;;;;;;5033420;28;20565;-76
2022/08/18 00:27:24;;;;;;;19.17;17.47;;;22.50;99.90;;;;;;5033980;28;20560;-76
2022/08/18 00:29:52;;;;;;;18.27;16.47;;;22.50;99.90;;;;;;5033271;28;20573;-76
2022/08/18 00:32:24;;;;;;;19.20;17.50;;;22.50;99.90;;;;;;5016120;28;20884;-76
2022/08/18 00:34:51;;;;;;;19.03;17.43;;;22.50;99.90;;;;;;5015257;28;21203;-76
2022/08/18 00:37:17;;;;;;;17.77;16.20;;;22.40;99.90;;;;;;5033111;28;20588;-76
2022/08/18 00:39:43;;;;;;;18.47;16.97;;;22.40;99.90;;;;;;5033341;28;20595;-76
2022/08/18 00:42:14;;;;;;;18.60;17.00;;;22.40;99.90;;;;;;5032626;28;20588;-76
2022/08/18 00:44:40;;;;;;;18.37;16.67;;;22.40;99.90;;;;;;5015344;28;20604;-76
2022/08/18 00:47:06;;;;;;;20.07;18.37;;;22.40;99.90;;;;;;5032959;28;20619;-76
2022/08/18 00:49:32;;;;;;;19.87;18.13;;;22.30;99.90;;;;;;5033000;28;20216;-76
2022/08/18 00:52:00;;;;;;;18.40;16.80;;;22.30;99.90;;;;;;5032687;28;20601;-76
2022/08/18 00:54:30;;;;;;;17.97;16.47;;;22.30;99.90;;;;;;5032631;28;20627;-77
2022/08/18 00:57:04;;;;;;;18.70;17.10;;;22.30;99.90;;;;;;5032808;28;20618;-76
2022/08/18 00:59:49;;;;;;;17.97;16.43;;;22.30;99.90;;;;;;5034900;28;20564;-77
2022/08/18 01:02:46;;;;;;;17.63;16.13;;;22.20;99.90;;;;;;5032538;28;20592;-77
2022/08/18 01:05:29;;;;;;;17.70;16.20;;;22.20;99.90;;;;;;5016957;28;20593;-76
2022/08/18 01:07:55;;;;;;;17.57;16.00;;;22.20;99.90;;;;;;5015041;28;20568;-76
2022/08/18 01:10:22;;;;;;;18.43;16.43;;;22.20;99.90;;;;;;5032489;28;20567;-77
2022/08/18 01:12:52;;;;;;;18.27;16.67;;;22.10;99.90;;;;;;5014648;28;20580;-76
2022/08/18 01:15:19;;;;;;;19.80;18.10;;;22.10;99.90;;;;;;5049219;23;20777;-74
2022/08/18 01:23:41;;;;;;;21.77;19.47;;;22.10;99.90;;;;;;4996852;28;21138;-74
2022/08/18 01:26:08;;;;;;;21.30;19.20;;;22.00;99.90;;;;;;5011858;28;20613;-74
2022/08/18 01:28:37;;;;;;;21.60;19.70;;;22.00;99.90;;;;;;4994523;28;20593;-74
2022/08/18 01:31:04;;;;;;;21.80;20.00;;;22.00;99.90;;;;;;5012051;28;20577;-75
2022/08/18 01:33:35;;;;;;;21.73;19.73;;;21.90;99.90;;;;;;4993960;28;21205;-74
2022/08/18 01:36:22;;;;;;;21.93;19.83;;;21.90;99.90;;;;;;5012253;28;20643;-74
2022/08/18 01:38:51;;;;;;;24.80;22.50;;;21.90;99.90;;;;;;5012034;28;20578;-74
2022/08/18 01:41:19;;;;;;;24.60;22.10;;;21.90;99.90;;;;;;4994092;28;20577;-75
2022/08/18 01:43:45;;;;;;;24.57;22.10;;;21.90;99.90;;;;;;5012006;28;20619;-74
2022/08/18 01:46:12;;;;;;;24.33;22.10;;;21.90;99.90;;;;;;4994460;28;20585;-74
2022/08/18 01:48:38;;;;;;;24.70;22.27;;;21.80;99.90;;;;;;4994367;28;20680;-74
2022/08/18 01:51:08;;;;;;;25.63;23.13;;;21.80;99.90;;;;;;4994203;28;20573;-75
2022/08/18 01:53:35;;;;;;;24.73;22.53;;;21.80;99.90;;;;;;5011935;28;20599;-75
2022/08/18 01:56:04;;;;;;;25.63;23.37;;;21.70;99.90;;;;;;5011862;28;20606;-74
2022/08/18 01:58:31;;;;;;;24.17;21.90;;;21.80;99.90;;;;;;5011665;28;20570;-74
2022/08/18 02:01:00;;;;;;;26.37;23.87;;;21.80;99.90;;;;;;5011728;28;20569;-74
2022/08/18 02:03:35;;;;;;;24.90;22.50;;;21.80;99.90;;;;;;5011424;28;20566;-75
2022/08/18 02:06:04;;;;;;;25.27;22.93;;;21.70;99.90;;;;;;5011560;28;20605;-75
2022/08/18 02:08:30;;;;;;;25.27;23.00;;;21.70;99.90;;;;;;4993908;28;20656;-74
2022/08/18 02:10:57;;;;;;;25.40;23.10;;;21.70;99.90;;;;;;4993808;28;20566;-74
2022/08/18 02:13:26;;;;;;;22.00;20.10;;;21.70;99.90;;;;;;5010943;28;20766;-75
2022/08/18 02:15:52;;;;;;;26.83;24.33;;;21.70;99.90;;;;;;5011411;28;20711;-74
2022/08/18 02:18:21;;;;;;;26.93;24.27;;;21.60;99.90;;;;;;5011754;28;21020;-74
2022/08/18 02:20:47;;;;;;;25.37;23.17;;;21.60;99.90;;;;;;5011609;28;20162;-74
2022/08/18 02:23:14;;;;;;;26.00;23.70;;;21.60;99.90;;;;;;4993495;28;20580;-74
2022/08/18 02:25:42;;;;;;;27.93;25.40;;;21.60;99.90;;;;;;4992942;28;20716;-75
2022/08/18 02:28:08;;;;;;;26.50;24.00;;;21.50;99.90;;;;;;5011382;28;20593;-74
2022/08/18 02:30:38;;;;;;;27.70;25.17;;;21.50;99.90;;;;;;5011745;28;20565;-74
2022/08/18 02:33:06;;;;;;;28.53;26.13;;;21.50;99.90;;;;;;5010373;28;20594;-74
2022/08/18 02:35:32;;;;;;;26.67;24.40;;;21.50;99.90;;;;;;4993562;28;20632;-74
2022/08/18 02:38:04;;;;;;;26.90;24.10;;;21.50;99.90;;;;;;5011377;28;20575;-74
2022/08/18 02:40:32;;;;;;;26.73;24.37;;;21.40;99.90;;;;;;5011410;28;20629;-74
2022/08/18 02:43:04;;;;;;;24.70;22.50;;;21.40;99.90;;;;;;5011043;28;20565;-74
2022/08/18 02:45:30;;;;;;;27.17;24.77;;;21.40;99.90;;;;;;5012329;28;20597;-74
2022/08/18 02:47:57;;;;;;;26.97;24.50;;;21.40;99.90;;;;;;5015438;28;20562;-74
2022/08/18 02:50:23;;;;;;;28.20;25.60;;;21.40;99.90;;;;;;4997954;28;20224;-74
2022/08/18 02:52:49;;;;;;;27.83;25.23;;;21.30;99.90;;;;;;5015051;28;20561;-74
2022/08/18 02:55:15;;;;;;;27.63;25.13;;;21.30;99.90;;;;;;5015017;28;20629;-74
2022/08/18 02:57:46;;;;;;;27.70;24.87;;;21.20;99.90;;;;;;4981627;28;20915;-73
2022/08/18 03:00:15;;;;;;;29.97;27.17;;;21.20;99.90;;;;;;5015205;28;20934;-74
2022/08/18 03:02:50;;;;;;;30.27;27.07;;;21.20;99.90;;;;;;5014822;28;20569;-74
2022/08/18 03:05:16;;;;;;;26.37;23.97;;;21.10;99.90;;;;;;4997321;28;20616;-74
2022/08/18 03:07:42;;;;;;;27.53;25.00;;;21.10;99.90;;;;;;4997482;28;20731;-73
2022/08/18 03:10:09;;;;;;;29.67;26.87;;;21.00;99.90;;;;;;5014942;28;20569;-73
2022/08/18 03:12:35;;;;;;;28.93;26.17;;;21.00;99.90;;;;;;4996940;28;20577;-73
2022/08/18 03:15:02;;;;;;;26.93;24.53;;;21.00;99.90;;;;;;5014887;28;20691;-73
2022/08/18 03:17:28;;;;;;;28.53;26.00;;;20.90;99.90;;;;;;5017382;28;20757;-72
2022/08/18 03:19:53;;;;;;;28.73;26.10;;;20.90;99.90;;;;;;5014907;28;20668;-73
2022/08/18 03:22:19;;;;;;;30.77;27.80;;;20.90;99.90;;;;;;5014031;28;20182;-73
2022/08/18 03:24:45;;;;;;;29.23;26.50;;;20.90;99.90;;;;;;5013956;28;20536;-73
2022/08/18 03:27:11;;;;;;;31.60;28.47;;;20.80;99.90;;;;;;5014710;28;20245;-74
2022/08/18 03:29:37;;;;;;;28.03;25.47;;;20.80;99.90;;;;;;5013977;28;20261;-74
2022/08/18 03:32:05;;;;;;;28.60;26.17;;;20.80;99.90;;;;;;5013649;28;20680;-73
2022/08/18 03:34:32;;;;;;;28.40;25.70;;;20.70;99.90;;;;;;5014524;28;20292;-73
2022/08/18 03:36:58;;;;;;;28.63;26.00;;;20.70;99.90;;;;;;5014032;28;20640;-74
2022/08/18 03:39:26;;;;;;;29.70;27.10;;;20.70;99.90;;;;;;4996904;28;20679;-74
2022/08/18 03:41:53;;;;;;;29.33;26.60;;;20.70;99.90;;;;;;4996410;28;20628;-73
2022/08/18 03:44:21;;;;;;;29.93;26.90;;;20.60;99.90;;;;;;5014303;28;20677;-73
2022/08/18 03:46:48;;;;;;;29.60;26.70;;;20.60;99.90;;;;;;5014450;28;21110;-73
2022/08/18 03:49:14;;;;;;;31.90;28.80;;;20.60;99.90;;;;;;5014379;28;20998;-73
2022/08/18 03:51:44;;;;;;;29.27;26.63;;;20.60;99.90;;;;;;5013968;28;20569;-73
2022/08/18 03:54:12;;;;;;;30.73;27.90;;;20.60;99.90;;;;;;5014083;28;20601;-73
2022/08/18 03:56:40;;;;;;;30.43;27.70;;;20.60;99.90;;;;;;4996231;28;20680;-74
2022/08/18 03:59:12;;;;;;;30.20;27.40;;;20.60;99.90;;;;;;5014006;28;21209;-73
2022/08/18 04:01:40;;;;;;;29.77;26.87;;;20.60;99.90;;;;;;5013832;28;20568;-74
2022/08/18 04:04:11;;;;;;;32.30;29.27;;;20.60;99.90;;;;;;4996544;28;21361;-73
2022/08/18 04:06:41;;;;;;;31.27;28.47;;;20.60;99.90;;;;;;5014003;28;20569;-73
2022/08/18 04:09:10;;;;;;;31.87;29.00;;;20.60;99.90;;;;;;5013697;28;20565;-74
2022/08/18 04:11:37;;;;;;;29.47;26.70;;;20.60;99.90;;;;;;5013458;28;20577;-73
2022/08/18 04:14:04;;;;;;;31.37;28.30;;;20.60;99.90;;;;;;5013752;28;20620;-73
2022/08/18 04:16:31;;;;;;;33.73;30.53;;;20.60;99.90;;;;;;5013692;28;20605;-73
2022/08/18 04:19:01;;;;;;;35.30;31.90;;;20.70;99.90;;;;;;4996226;28;20565;-73
2022/08/18 04:21:30;;;;;;;29.37;26.57;;;20.70;99.90;;;;;;4995781;28;20574;-73
2022/08/18 04:23:58;;;;;;;33.93;30.40;;;20.70;99.90;;;;;;4995093;28;20636;-73
2022/08/18 04:26:24;;;;;;;34.40;31.27;;;20.80;99.90;;;;;;5011295;28;20605;-74
2022/08/18 04:28:50;;;;;;;35.83;31.97;;;20.80;99.90;;;;;;4993532;28;21164;-74
2022/08/18 04:31:17;;;;;;;31.90;28.60;;;20.80;99.90;;;;;;4995014;28;20990;-73
2022/08/18 04:33:42;;;;;;;36.97;33.27;;;20.90;99.90;;;;;;5013249;28;20253;-72
2022/08/18 04:36:13;;;;;;;36.60;32.90;;;20.90;99.90;;;;;;5012882;28;20604;-73
2022/08/18 04:38:42;;;;;;;34.60;31.07;;;20.90;99.90;;;;;;5013557;28;20570;-73
2022/08/18 04:41:11;;;;;;;36.27;32.37;;;20.90;99.90;;;;;;5011725;28;20580;-74
2022/08/18 04:43:37;;;;;;;36.87;32.97;;;21.00;99.90;;;;;;4995797;28;20581;-73
2022/08/18 04:46:04;;;;;;;36.67;32.90;;;21.00;99.90;;;;;;5013168;28;21002;-73
2022/08/18 04:48:32;;;;;;;36.17;32.50;;;21.00;99.90;;;;;;5013098;28;20628;-73
2022/08/18 04:51:12;;;;;;;38.23;34.30;;;21.00;99.90;;;;;;4995458;28;20573;-74
2022/08/18 04:53:46;;;;;;;38.17;34.10;;;21.00;99.90;;;;;;5012989;28;20569;-73
2022/08/18 04:56:25;;;;;;;36.97;33.27;;;21.10;99.90;;;;;;5013009;28;20602;-73
2022/08/18 04:59:07;;;;;;;41.57;37.17;;;21.10;99.90;;;;;;5012967;28;20589;-74
2022/08/18 05:01:37;;;;;;;41.70;36.10;;;21.10;99.90;;;;;;4995004;28;21142;-73
2022/08/18 05:04:03;;;;;;;51.40;43.50;;;21.10;99.90;;;;;;4995265;28;20632;-73
2022/08/18 05:06:29;;;;;;;48.10;37.97;;;21.10;99.90;;;;;;5012690;28;20636;-73
2022/08/18 05:08:59;;;;;;;49.67;40.27;;;21.10;99.90;;;;;;5012095;28;20578;-73
2022/08/18 05:11:28;;;;;;;47.83;41.37;;;21.10;99.90;;;;;;5012575;28;20672;-72
2022/08/18 05:13:59;;;;;;;54.00;41.80;;;21.10;99.90;;;;;;4995170;28;21232;-73
2022/08/18 05:16:26;;;;;;;49.10;39.57;;;21.10;99.90;;;;;;5012510;28;20641;-73
2022/08/18 05:18:52;;;;;;;49.83;42.30;;;21.10;99.90;;;;;;4995501;28;21161;-72
2022/08/18 05:21:21;;;;;;;52.60;43.70;;;21.20;99.90;;;;;;5012250;28;20566;-73
2022/08/18 05:23:49;;;;;;;51.80;43.17;;;21.20;99.90;;;;;;5012657;28;20763;-72
2022/08/18 05:26:16;;;;;;;49.93;40.20;;;21.20;99.90;;;;;;4994891;28;21261;-72
2022/08/18 05:28:43;;;;;;;50.23;41.30;;;21.20;99.90;;;;;;4994952;28;20999;-72
2022/08/18 05:31:18;;;;;;;49.97;41.47;;;21.30;99.90;;;;;;5012094;28;20584;-72
2022/08/18 05:33:46;;;;;;;49.67;39.97;;;21.30;99.90;;;;;;5012426;28;20974;-72
2022/08/18 05:36:42;;;;;;;46.80;38.90;;;21.30;99.90;;;;;;4994554;28;20716;-73
2022/08/18 05:39:17;;;;;;;48.53;39.47;;;21.30;99.90;;;;;;4994793;28;20569;-72
2022/08/18 05:41:54;;;;;;;49.20;39.17;;;21.40;99.90;;;;;;5012009;28;20956;-72
2022/08/18 05:44:28;;;;;;;47.40;39.80;;;21.40;99.90;;;;;;5012069;28;20569;-72
2022/08/18 05:47:12;;;;;;;47.60;38.27;;;21.40;99.90;;;;;;5012132;28;20895;-72
2022/08/18 05:49:41;;;;;;;45.53;40.20;;;21.50;99.90;;;;;;5012156;28;21031;-71
2022/08/18 05:52:13;;;;;;;45.50;37.23;;;21.50;99.90;;;;;;5011544;28;20938;-71
2022/08/18 05:57:45;;;;;;;46.00;37.70;;;21.60;99.90;;;;;;4994480;28;20942;-71
2022/08/18 06:00:12;;;;;;;49.47;39.80;;;21.70;99.90;;;;;;5011977;28;20693;-71
2022/08/18 06:02:51;;;;;;;45.97;39.37;;;21.80;99.90;;;;;;5011420;28;20568;-72
2022/08/18 06:05:29;;;;;;;50.43;40.80;;;21.90;99.90;;;;;;4994040;28;20613;-71
2022/08/18 06:08:01;;;;;;;47.37;39.20;;;21.90;99.90;;;;;;5011932;28;20612;-72
2022/08/18 06:10:27;;;;;;;47.00;38.40;;;22.00;99.90;;;;;;5011786;28;20702;-72
2022/08/18 06:12:58;;;;;;;48.27;38.07;;;22.00;99.90;;;;;;5011395;28;20644;-71
2022/08/18 06:15:42;;;;;;;43.80;38.10;;;22.10;99.90;;;;;;5011509;28;20640;-72
2022/08/18 06:18:30;;;;;;;49.40;39.00;;;22.10;99.90;;;;;;5011608;28;20587;-72
2022/08/18 06:21:05;;;;;;;47.87;35.87;;;22.20;99.90;;;;;;5011355;28;20569;-71
2022/08/18 06:24:34;;;;;;;44.30;35.97;;;22.20;99.90;;;;;;5011959;28;20624;-71
2022/08/18 06:27:27;;;;;;;47.60;37.57;;;22.20;99.90;;;;;;5007755;28;20588;-71
2022/08/18 06:30:11;;;;;;;49.73;39.30;;;22.30;99.90;;;;;;5011547;28;20883;-71
2022/08/18 06:32:51;;;;;;;44.90;36.43;;;22.40;99.90;;;;;;5011208;28;20565;-71
2022/08/18 06:35:20;;;;;;;46.23;37.60;;;22.40;99.90;;;;;;5011248;28;20725;-70
2022/08/18 06:41:30;;;;;;;45.70;37.50;;;22.60;99.90;;;;;;5011317;28;20561;-70
2022/08/18 06:44:02;;;;;;;45.63;36.60;;;22.60;99.90;;;;;;4981754;28;20589;-70
2022/08/18 06:47:05;;;;;;;48.97;36.47;;;22.70;99.90;;;;;;5011218;28;20609;-70
2022/08/18 06:49:55;;;;;;;41.17;34.13;;;22.80;99.90;;;;;;4993829;28;20589;-70
2022/08/18 06:52:28;;;;;;;47.43;37.07;;;22.90;99.90;;;;;;5010988;28;20627;-70
2022/08/18 06:54:58;;;;;;;44.87;36.60;;;23.00;99.90;;;;;;5011043;28;20639;-70
2022/08/18 06:57:37;;;;;;;45.90;35.83;;;23.00;99.90;;;;;;4993447;28;20927;-70
2022/08/18 07:00:31;;;;;;;44.70;35.83;;;23.10;99.90;;;;;;5011117;28;20565;-70
2022/08/18 07:03:03;;;;;;;45.60;35.40;;;23.10;99.90;;;;;;5008500;28;20636;-70
2022/08/18 07:05:31;;;;;;;39.57;32.23;;;23.20;99.90;;;;;;5011102;28;20604;-70
2022/08/18 07:08:23;;;;;;;36.63;31.30;;;23.20;99.90;;;;;;5010834;28;20573;-70
2022/08/18 07:10:51;;;;;;;37.67;30.60;;;23.30;99.90;;;;;;5011338;28;20908;-71
2022/08/18 07:13:28;;;;;;;33.00;27.97;;;23.30;99.90;;;;;;5010506;28;21281;-71
2022/08/18 07:15:55;;;;;;;30.87;27.57;;;23.30;99.90;;;;;;5032933;23;20727;-71
2022/08/18 07:18:26;;;;;;;29.97;26.87;;;23.40;99.90;;;;;;5012636;28;20594;-72
2022/08/18 07:20:57;;;;;;;28.60;25.80;;;23.40;99.90;;;;;;4991192;28;21126;-72
2022/08/18 07:23:41;;;;;;;29.90;26.70;;;23.50;99.90;;;;;;5005453;28;20584;-72
2022/08/18 07:26:07;;;;;;;31.80;28.50;;;23.50;99.90;;;;;;5010624;28;20600;-72
2022/08/18 07:28:38;;;;;;;28.07;25.47;;;23.60;99.90;;;;;;5010803;28;20976;-72
2022/08/18 07:31:23;;;;;;;27.33;24.50;;;23.60;99.90;;;;;;4993270;28;20674;-72
2022/08/18 07:33:54;;;;;;;27.47;24.57;;;23.60;99.90;;;;;;5014461;28;20996;-73
2022/08/18 07:36:23;;;;;;;28.33;25.37;;;23.70;99.90;;;;;;5014222;28;20601;-72
2022/08/18 07:38:55;;;;;;;27.80;24.77;;;23.70;99.90;;;;;;4996594;28;20605;-73
2022/08/18 07:41:41;;;;;;;27.83;25.07;;;23.70;99.90;;;;;;5033632;28;20619;-73
2022/08/18 07:44:28;;;;;;;27.63;23.83;;;23.80;99.90;;;;;;5016396;28;20560;-73
2022/08/18 07:47:02;;;;;;;24.20;21.80;;;23.80;99.90;;;;;;4999572;28;20627;-73
2022/08/18 07:49:35;;;;;;;26.67;22.90;;;23.80;99.90;;;;;;5016528;28;20958;-73
2022/08/18 07:52:04;;;;;;;28.33;25.47;;;23.90;99.90;;;;;;5033792;28;20950;-73
2022/08/18 07:55:02;;;;;;;26.50;23.87;;;23.90;99.90;;;;;;5033752;28;21303;-73
2022/08/18 07:57:37;;;;;;;28.07;24.67;;;23.90;99.90;;;;;;5033979;28;20596;-73
2022/08/18 08:00:29;;;;;;;24.83;22.27;;;24.00;99.90;;;;;;5016163;28;20580;-73
2022/08/18 08:03:16;;;;;;;27.37;23.10;;;24.00;99.90;;;;;;5033173;28;20634;-72
2022/08/18 08:06:06;;;;;;;23.27;20.77;;;24.10;99.90;;;;;;5015857;28;20982;-73
2022/08/18 08:08:39;;;;;;;24.03;21.67;;;24.20;99.90;;;;;;5033711;28;20572;-73
2022/08/18 08:11:19;;;;;;;23.57;21.33;;;24.20;99.90;;;;;;5014089;28;20684;-73
2022/08/18 08:14:07;;;;;;;23.50;21.10;;;24.20;99.90;;;;;;5013609;28;20593;-72
2022/08/18 08:16:39;;;;;;;23.40;21.10;;;24.20;99.90;;;;;;5013504;28;20716;-73
2022/08/18 08:19:27;;;;;;;24.57;22.30;;;24.30;99.90;;;;;;5013788;28;20608;-73
2022/08/18 08:22:07;;;;;;;23.70;20.43;;;24.30;99.90;;;;;;5013256;28;20616;-73
2022/08/18 08:24:45;;;;;;;23.63;21.40;;;24.20;99.90;;;;;;4979926;28;20605;-73
2022/08/18 08:27:49;;;;;;;22.23;20.13;;;24.20;99.90;;;;;;5013705;28;20589;-72
2022/08/18 08:30:18;;;;;;;22.17;20.07;;;24.20;99.90;;;;;;4977901;28;20609;-72
2022/08/18 08:33:13;;;;;;;23.80;21.60;;;24.30;99.90;;;;;;5004623;28;20940;-72
2022/08/18 08:35:47;;;;;;;22.27;20.27;;;24.30;99.90;;;;;;5008355;28;20652;-72
2022/08/18 08:38:42;;;;;;;22.37;20.33;;;24.30;99.90;;;;;;5006134;28;21252;-72
2022/08/18 08:41:27;;;;;;;22.70;20.50;;;24.30;99.90;;;;;;5002382;28;20649;-73
2022/08/18 08:44:35;;;;;;;22.53;20.47;;;24.30;99.90;;;;;;5013203;28;21188;-72
2022/08/18 08:47:09;;;;;;;20.23;18.30;;;24.40;99.90;;;;;;4979730;28;20613;-72
2022/08/18 08:49:59;;;;;;;23.17;19.63;;;24.40;99.90;;;;;;5013343;28;20977;-72
2022/08/18 08:52:43;;;;;;;23.67;19.90;;;24.40;99.90;;;;;;5012907;28;20919;-73
2022/08/18 08:55:28;;;;;;;20.20;18.17;;;24.50;99.90;;;;;;5013003;28;20617;-73
2022/08/18 08:58:15;;;;;;;22.87;20.57;;;24.50;99.90;;;;;;4991827;28;21172;-73
2022/08/18 09:00:42;;;;;;;20.50;18.70;;;24.50;99.90;;;;;;4990842;28;20647;-73
2022/08/18 09:03:42;;;;;;;20.57;18.57;;;24.70;99.90;;;;;;4994639;28;20676;-73
2022/08/18 09:06:56;;;;;;;20.30;18.50;;;24.70;99.90;;;;;;5012808;28;20809;-73
2022/08/18 09:09:44;;;;;;;18.00;16.37;;;24.80;99.90;;;;;;4993207;28;21384;-72
2022/08/18 09:12:24;;;;;;;19.70;18.00;;;24.90;99.90;;;;;;4975585;28;20609;-72
2022/08/18 09:15:15;;;;;;;19.63;17.80;;;25.00;99.90;;;;;;4993123;28;20645;-73
2022/08/18 09:18:12;;;;;;;24.13;17.43;;;25.10;99.90;;;;;;4993205;28;20625;-72
2022/08/18 09:21:04;;;;;;;18.37;16.67;;;25.30;99.90;;;;;;4993149;28;20563;-73
2022/08/18 09:23:45;;;;;;;18.83;16.90;;;25.50;99.90;;;;;;4959456;28;20665;-73
2022/08/18 09:26:38;;;;;;;18.77;17.07;;;25.80;99.90;;;;;;4993039;28;21170;-73
2022/08/18 09:29:22;;;;;;;17.87;16.17;;;26.00;99.90;;;;;;4975445;28;20574;-72
2022/08/18 09:32:09;;;;;;;21.20;18.03;;;26.30;99.90;;;;;;4992606;28;20570;-73
2022/08/18 09:34:44;;;;;;;20.80;18.70;;;26.60;99.90;;;;;;4992691;28;21030;-74
2022/08/18 09:37:19;;;;;;;20.10;18.00;;;26.80;99.90;;;;;;4992742;28;20606;-73
2022/08/18 09:42:56;;;;;;;23.87;18.60;;;27.10;99.90;;;;;;4992547;28;20566;-73
2022/08/18 09:45:28;;;;;;;20.00;18.10;;;27.20;99.90;;;;;;4975071;28;20577;-73
2022/08/18 09:47:55;;;;;;;18.53;16.83;;;27.30;99.90;;;;;;4992377;28;20566;-73
2022/08/18 09:50:27;;;;;;;18.93;17.03;;;27.40;99.90;;;;;;4992790;28;20574;-73
2022/08/18 09:52:56;;;;;;;18.17;16.37;;;27.40;99.90;;;;;;4992242;28;20574;-73
2022/08/18 09:55:22;;;;;;;18.50;16.80;;;27.40;99.90;;;;;;4992081;28;20714;-73
2022/08/18 09:58:23;;;;;;;19.30;17.30;;;27.40;99.90;;;;;;4975267;28;20605;-73
2022/08/18 10:01:17;;;;;;;17.53;16.00;;;27.30;99.90;;;;;;4992396;28;20210;-73
2022/08/18 10:04:03;;;;;;;17.60;15.90;;;27.30;99.90;;;;;;5008332;28;20624;-74
2022/08/18 10:06:29;;;;;;;16.33;14.83;;;27.30;99.90;;;;;;5006378;28;20640;-74
2022/08/18 10:09:03;;;;;;;16.87;15.47;;;27.40;99.90;;;;;;5011838;28;20609;-73
2022/08/18 10:12:09;;;;;;;17.90;16.10;;;27.40;99.90;;;;;;4978914;28;20169;-74
2022/08/18 10:14:57;;;;;;;19.37;17.47;;;27.60;99.90;;;;;;5034282;28;21222;-74
2022/08/18 10:17:59;;;;;;;18.60;16.90;;;27.80;99.90;;;;;;5031346;28;20705;-74
2022/08/18 10:20:48;;;;;;;16.87;15.37;;;28.30;99.90;;;;;;4997518;28;20556;-74
2022/08/18 10:23:51;;;;;;;17.30;15.80;;;29.10;99.90;;;;;;5031424;28;20556;-74
2022/08/18 10:26:29;;;;;;;16.63;15.23;;;29.80;99.90;;;;;;5019093;28;20628;-73
2022/08/18 10:29:07;;;;;;;15.13;13.80;;;30.30;99.90;;;;;;5011651;28;20576;-73
2022/08/18 10:31:54;;;;;;;17.60;16.13;;;30.70;99.90;;;;;;4993822;28;20608;-73
2022/08/18 10:34:47;;;;;;;16.80;15.20;;;31.00;99.90;;;;;;4994134;28;20969;-73
2022/08/18 10:37:21;;;;;;;16.27;15.00;;;31.30;99.90;;;;;;5011553;28;20761;-73
2022/08/18 10:39:53;;;;;;;15.63;14.30;;;31.30;99.90;;;;;;5011763;28;20583;-72
2022/08/18 10:42:45;;;;;;;14.37;13.17;;;31.20;99.90;;;;;;4993717;28;20569;-72
2022/08/18 10:45:31;;;;;;;14.83;13.63;;;31.20;99.90;;;;;;5011519;28;20572;-72
2022/08/18 10:48:21;;;;;;;15.57;14.30;;;31.20;99.90;;;;;;5011183;28;20601;-72
2022/08/18 10:50:53;;;;;;;16.30;14.97;;;31.30;99.60;;;;;;4987329;28;20642;-72
2022/08/18 10:53:24;;;;;;;14.53;13.13;;;31.30;99.00;;;;;;5028633;28;20591;-72
2022/08/18 10:56:10;;;;;;;13.00;11.93;;;31.10;98.00;;;;;;5013308;28;20636;-72
2022/08/18 10:59:12;;;;;;;13.20;12.00;;;31.00;98.00;;;;;;5013635;28;20610;-72
2022/08/18 11:01:50;;;;;;;13.93;12.23;;;30.80;98.00;;;;;;5020202;28;21029;-72
2022/08/18 11:04:36;;;;;;;14.37;13.07;;;30.70;97.70;;;;;;5031097;28;20622;-72
2022/08/18 11:07:14;;;;;;;12.60;11.50;;;30.50;97.40;;;;;;5032774;28;20650;-72
2022/08/18 11:09:42;;;;;;;12.70;11.70;;;30.40;97.40;;;;;;5034778;28;20580;-72
2022/08/18 11:12:12;;;;;;;12.20;11.20;;;30.30;97.40;;;;;;5016662;28;21108;-72
2022/08/18 11:15:28;;;;;;;12.87;11.73;;;30.20;97.40;;;;;;5034924;28;21377;-72
2022/08/18 11:18:12;;;;;;;13.40;12.17;;;30.20;97.50;;;;;;4972493;28;21386;-72
2022/08/18 11:20:39;;;;;;;13.30;12.20;;;30.30;98.00;;;;;;4958144;28;20589;-72
2022/08/18 11:23:13;;;;;;;14.80;13.50;;;30.40;97.80;;;;;;5011303;28;20707;-72
2022/08/18 11:25:40;;;;;;;13.83;12.63;;;30.40;97.40;;;;;;5010296;28;20618;-72
2022/08/18 11:28:22;;;;;;;14.13;12.90;;;30.50;97.20;;;;;;4996972;28;21150;-72
2022/08/18 11:30:53;;;;;;;15.53;11.23;;;30.60;97.00;;;;;;5014655;28;20561;-72
2022/08/18 11:33:20;;;;;;;13.83;12.63;;;30.70;97.20;;;;;;5014299;28;20592;-72
2022/08/18 11:35:59;;;;;;;13.07;11.83;;;30.80;96.80;;;;;;5014472;28;20632;-72
2022/08/18 11:38:27;;;;;;;14.20;13.00;;;30.90;96.50;;;;;;4997049;28;20588;-72
2022/08/18 11:41:11;;;;;;;15.27;13.83;;;31.00;96.40;;;;;;4996882;28;20581;-72
2022/08/18 11:43:38;;;;;;;13.67;12.40;;;31.10;95.80;;;;;;4980492;28;21215;-72
2022/08/18 11:46:19;;;;;;;14.13;12.90;;;31.10;95.70;;;;;;4996978;28;20636;-72
2022/08/18 11:48:49;;;;;;;13.10;11.90;;;31.20;95.10;;;;;;5012557;28;20620;-73
2022/08/18 11:51:16;;;;;;;11.90;10.93;;;31.30;95.00;;;;;;5013909;28;20932;-72
2022/08/18 11:53:48;;;;;;;12.73;11.73;;;31.40;95.10;;;;;;5015585;28;20589;-72
2022/08/18 11:56:33;;;;;;;11.87;10.90;;;31.50;94.90;;;;;;5002676;28;20765;-72
2022/08/18 11:59:03;;;;;;;12.03;10.80;;;31.80;94.80;;;;;;5012558;28;20584;-73
2022/08/18 12:01:53;;;;;;;13.47;12.17;;;31.90;94.40;;;;;;5013280;28;20581;-72
2022/08/18 12:04:19;;;;;;;11.03;10.03;;;32.10;93.40;;;;;;4994943;28;20647;-73
2022/08/18 12:07:11;;;;;;;11.90;11.00;;;32.10;92.90;;;;;;5012306;28;21274;-73
2022/08/18 12:09:47;;;;;;;13.00;11.80;;;32.10;92.10;;;;;;5011633;28;20927;-73
2022/08/18 12:12:31;;;;;;;13.27;12.07;;;32.00;91.40;;;;;;5005709;28;20568;-73
2022/08/18 12:15:11;;;;;;;14.13;13.03;;;31.80;90.70;;;;;;5013747;28;20678;-73
2022/08/18 12:17:39;;;;;;;14.00;12.70;;;31.60;90.70;;;;;;5001545;28;20609;-73
2022/08/18 12:20:07;;;;;;;12.63;11.57;;;31.50;90.60;;;;;;4999745;28;20580;-73
2022/08/18 12:22:35;;;;;;;13.60;12.50;;;31.30;90.40;;;;;;5033078;28;20563;-73
2022/08/18 12:25:03;;;;;;;12.57;11.47;;;31.00;90.40;;;;;;4994140;28;20594;-72
2022/08/18 12:27:32;;;;;;;12.77;11.77;;;30.90;90.40;;;;;;4996025;28;20613;-72
2022/08/18 12:30:00;;;;;;;11.33;10.23;;;30.70;90.20;;;;;;5013613;28;21159;-72
2022/08/18 12:32:28;;;;;;;13.07;11.97;;;30.50;90.40;;;;;;5013374;28;21184;-73
2022/08/18 12:34:54;;;;;;;13.27;12.00;;;30.30;90.00;;;;;;4995732;28;20627;-73
2022/08/18 12:37:24;;;;;;;12.53;11.53;;;30.00;90.00;;;;;;5013587;28;20698;-73
2022/08/18 12:39:50;;;;;;;12.50;11.50;;;29.80;90.40;;;;;;5013585;28;20600;-73
2022/08/18 12:42:17;;;;;;;10.77;9.77;;;29.70;91.10;;;;;;5012954;28;20672;-73
2022/08/18 12:44:43;;;;;;;11.10;10.13;;;29.80;91.70;;;;;;5013354;28;20561;-73
2022/08/18 12:47:15;;;;;;;12.20;11.10;;;29.90;92.00;;;;;;5013243;28;20601;-72
2022/08/18 12:49:41;;;;;;;10.93;10.10;;;30.00;91.70;;;;;;4996076;28;20574;-73
2022/08/18 12:52:08;;;;;;;12.23;11.03;;;30.20;91.90;;;;;;5010013;28;20600;-73
2022/08/18 12:54:34;;;;;;;11.53;10.57;;;30.40;91.90;;;;;;5011029;28;20636;-73
2022/08/18 12:57:02;;;;;;;10.40;9.50;;;30.50;91.80;;;;;;4996322;28;20605;-74
2022/08/18 12:59:28;;;;;;;10.63;9.73;;;30.70;91.50;;;;;;5014063;28;20975;-73
2022/08/18 13:01:54;;;;;;;10.23;9.23;;;30.70;90.90;;;;;;4994987;28;20647;-73
2022/08/18 13:04:20;;;;;;;10.00;9.13;;;30.80;90.60;;;;;;5013174;28;20186;-73
2022/08/18 13:06:57;;;;;;;8.90;8.20;;;30.80;90.00;;;;;;5013165;28;20603;-73
2022/08/18 13:09:24;;;;;;;10.23;9.30;;;30.80;89.80;;;;;;5013205;28;20244;-73
2022/08/18 13:11:50;;;;;;;10.57;9.60;;;30.80;89.60;;;;;;5012588;28;20573;-72
2022/08/18 13:14:16;;;;;;;9.20;8.40;;;30.80;89.00;;;;;;5012896;28;20632;-72
2022/08/18 13:16:44;;;;;;;10.27;9.47;;;30.80;89.00;;;;;;5023731;23;20722;-79
2022/08/18 13:19:12;;;;;;;10.03;8.60;;;30.80;88.70;;;;;;5008176;28;20597;-80
2022/08/18 13:21:41;;;;;;;9.80;8.13;;;30.80;88.50;;;;;;5031375;28;20687;-80